Time;durP1;ratioP1;P1;durP2;ratioP2;P2;SDS_P1;SDS_P2;PMS_P1;PMS_P2;Temp;Humidity;BMP_temperature;BMP_pressure;BME280_temperature;BME280_humidity;BME280_pressure;Samples;Min_cycle;Max_cycle;Signal;HPM_P1;HPM_P2
2023/12/20 00:00:43;;;;;;;7.77;2.90;;;;;;;;;;4973712;28;20740;-49
2023/12/20 00:03:09;;;;;;;9.37;2.87;;;;;;;;;;4974116;28;20294;-49
2023/12/20 00:05:38;;;;;;;5.27;2.90;;;;;;;;;;4973431;28;20217;-50
2023/12/20 00:08:05;;;;;;;5.57;2.60;;;;;;;;;;4973596;28;20207;-49
2023/12/20 00:10:31;;;;;;;8.17;2.77;;;;;;;;;;4973520;28;20195;-49
2023/12/20 00:12:57;;;;;;;6.60;2.47;;;;;;;;;;4973734;28;20210;-49
2023/12/20 00:15:24;;;;;;;12.77;3.33;;;;;;;;;;4973600;28;20314;-49
2023/12/20 00:17:50;;;;;;;3.23;2.13;;;;;;;;;;4973388;28;20215;-49
2023/12/20 00:20:16;;;;;;;3.20;2.20;;;;;;;;;;4973589;28;20197;-49
2023/12/20 00:22:42;;;;;;;4.77;2.13;;;;;;;;;;4973247;28;20233;-49
2023/12/20 00:25:08;;;;;;;8.60;2.53;;;;;;;;;;4973480;28;20273;-49
2023/12/20 00:27:34;;;;;;;8.67;2.63;;;;;;;;;;4973188;28;20297;-49
2023/12/20 00:30:00;;;;;;;6.27;2.60;;;;;;;;;;4973299;28;20693;-49
2023/12/20 00:32:27;;;;;;;7.00;2.57;;;;;;;;;;4973418;28;20226;-49
2023/12/20 00:34:53;;;;;;;8.17;2.63;;;;;;;;;;4973167;28;20226;-49
2023/12/20 00:37:19;;;;;;;6.37;2.40;;;;;;;;;;4973169;28;20277;-49
2023/12/20 00:39:45;;;;;;;10.37;2.67;;;;;;;;;;4973133;28;20740;-49
2023/12/20 00:42:11;;;;;;;3.73;2.23;;;;;;;;;;4973251;28;20234;-49
2023/12/20 00:44:37;;;;;;;8.03;2.53;;;;;;;;;;4973037;28;20206;-49
2023/12/20 00:47:03;;;;;;;4.97;1.93;;;;;;;;;;4972996;28;20199;-49
2023/12/20 00:49:31;;;;;;;6.87;2.60;;;;;;;;;;4973028;28;20203;-49
2023/12/20 00:51:56;;;;;;;5.23;2.20;;;;;;;;;;4973134;28;20555;-49
2023/12/20 00:54:22;;;;;;;6.03;2.27;;;;;;;;;;4972976;28;20231;-49
2023/12/20 00:56:48;;;;;;;6.47;2.73;;;;;;;;;;4972866;28;20203;-49
2023/12/20 00:59:14;;;;;;;9.20;2.37;;;;;;;;;;4972902;28;20277;-49
2023/12/20 01:01:41;;;;;;;9.10;2.50;;;;;;;;;;4972947;28;20203;-49
2023/12/20 01:04:08;;;;;;;5.73;2.27;;;;;;;;;;4974815;28;20591;-49
2023/12/20 01:06:35;;;;;;;5.77;2.53;;;;;;;;;;4976941;28;20209;-49
2023/12/20 01:09:01;;;;;;;5.43;2.27;;;;;;;;;;4976922;28;20207;-51
2023/12/20 01:11:27;;;;;;;5.17;2.20;;;;;;;;;;4977045;28;20614;-49
2023/12/20 01:13:53;;;;;;;7.53;2.37;;;;;;;;;;4976770;28;20293;-49
2023/12/20 01:16:19;;;;;;;8.57;2.30;;;;;;;;;;4976753;28;20230;-50
2023/12/20 01:18:45;;;;;;;6.57;2.60;;;;;;;;;;4976635;28;20209;-48
2023/12/20 01:21:11;;;;;;;7.03;2.63;;;;;;;;;;4976892;28;20195;-49
2023/12/20 01:23:38;;;;;;;5.30;2.30;;;;;;;;;;4976574;28;20626;-49
2023/12/20 01:26:05;;;;;;;6.93;2.47;;;;;;;;;;4976658;28;20207;-49
2023/12/20 01:28:31;;;;;;;10.87;2.70;;;;;;;;;;4976389;28;20270;-49
2023/12/20 01:30:57;;;;;;;7.33;2.50;;;;;;;;;;4976536;28;20342;-49
2023/12/20 01:33:23;;;;;;;5.83;3.00;;;;;;;;;;4976625;28;20426;-49
2023/12/20 01:35:49;;;;;;;7.57;2.50;;;;;;;;;;4976234;28;20641;-49
2023/12/20 01:38:18;;;;;;;7.23;2.40;;;;;;;;;;4976636;28;20281;-49
2023/12/20 01:40:45;;;;;;;5.67;2.33;;;;;;;;;;4976276;28;20211;-49
2023/12/20 01:43:12;;;;;;;6.13;2.63;;;;;;;;;;4976480;28;20238;-49
2023/12/20 01:45:38;;;;;;;8.73;2.97;;;;;;;;;;4976215;28;20769;-49
2023/12/20 01:48:05;;;;;;;8.47;2.83;;;;;;;;;;4976077;28;20298;-50
2023/12/20 01:50:31;;;;;;;6.87;2.73;;;;;;;;;;4976160;28;20310;-49
2023/12/20 01:52:58;;;;;;;5.57;2.50;;;;;;;;;;4976061;28;20203;-49
2023/12/20 01:55:25;;;;;;;8.43;2.73;;;;;;;;;;4976018;28;20763;-48
2023/12/20 01:57:52;;;;;;;8.73;2.60;;;;;;;;;;4967455;28;20214;-49
2023/12/20 02:00:22;;;;;;;11.07;2.70;;;;;;;;;;4962609;28;20207;-49
2023/12/20 02:02:49;;;;;;;7.97;2.73;;;;;;;;;;4964220;28;20206;-49
2023/12/20 02:05:16;;;;;;;9.83;2.90;;;;;;;;;;4962469;28;20662;-49
2023/12/20 02:07:42;;;;;;;5.73;2.43;;;;;;;;;;4965737;28;20450;-50
2023/12/20 02:10:08;;;;;;;9.07;2.90;;;;;;;;;;4964144;28;20206;-49
2023/12/20 02:12:35;;;;;;;5.20;2.40;;;;;;;;;;4965680;28;20297;-49
2023/12/20 02:15:02;;;;;;;7.70;2.80;;;;;;;;;;4964638;28;20230;-49
2023/12/20 02:17:28;;;;;;;6.67;2.50;;;;;;;;;;4964112;28;20282;-49
2023/12/20 02:19:54;;;;;;;7.40;2.60;;;;;;;;;;4962254;28;20269;-49
2023/12/20 02:22:22;;;;;;;10.13;2.87;;;;;;;;;;4967218;28;20713;-50
2023/12/20 02:24:48;;;;;;;5.47;2.73;;;;;;;;;;4975404;28;20283;-50
2023/12/20 02:27:15;;;;;;;10.30;2.90;;;;;;;;;;4975452;28;20741;-50
2023/12/20 02:29:41;;;;;;;9.77;3.20;;;;;;;;;;4975503;28;20205;-48
2023/12/20 02:32:07;;;;;;;9.80;3.50;;;;;;;;;;4975584;28;20666;-48
2023/12/20 02:34:33;;;;;;;6.83;3.10;;;;;;;;;;4975325;28;20226;-48
2023/12/20 02:36:59;;;;;;;6.83;2.73;;;;;;;;;;4975224;28;20207;-49
2023/12/20 02:39:27;;;;;;;8.17;3.00;;;;;;;;;;4975543;28;20266;-49
2023/12/20 02:41:53;;;;;;;7.80;2.70;;;;;;;;;;4975254;28;20202;-48
2023/12/20 02:44:19;;;;;;;12.50;2.90;;;;;;;;;;4975270;28;20203;-48
2023/12/20 02:46:45;;;;;;;9.40;2.57;;;;;;;;;;4975109;28;20254;-48
2023/12/20 02:49:11;;;;;;;9.60;2.90;;;;;;;;;;4975412;28;20329;-48
2023/12/20 02:51:38;;;;;;;10.80;3.93;;;;;;;;;;4975003;28;20198;-48
2023/12/20 02:54:05;;;;;;;7.37;3.73;;;;;;;;;;4975197;28;20285;-49
2023/12/20 02:56:32;;;;;;;14.10;3.20;;;;;;;;;;4975050;28;20277;-49
2023/12/20 02:58:58;;;;;;;8.57;3.07;;;;;;;;;;4975123;28;20207;-50
2023/12/20 03:01:24;;;;;;;12.47;4.13;;;;;;;;;;4974975;28;20203;-48
2023/12/20 03:03:50;;;;;;;8.43;3.37;;;;;;;;;;4974812;28;20236;-49
2023/12/20 03:06:17;;;;;;;7.63;3.43;;;;;;;;;;4974889;28;20199;-49
2023/12/20 03:08:43;;;;;;;9.50;3.70;;;;;;;;;;4974629;28;20654;-48
2023/12/20 03:11:09;;;;;;;8.67;3.10;;;;;;;;;;4974934;28;20246;-48
2023/12/20 03:13:36;;;;;;;10.43;3.33;;;;;;;;;;4974643;28;20637;-48
2023/12/20 03:16:08;;;;;;;7.97;3.00;;;;;;;;;;4974601;28;20230;-49
2023/12/20 03:18:34;;;;;;;7.67;3.20;;;;;;;;;;4974576;28;20456;-48
2023/12/20 03:21:00;;;;;;;8.20;3.40;;;;;;;;;;4974369;28;20529;-49
2023/12/20 03:23:27;;;;;;;13.10;3.87;;;;;;;;;;4974476;28;20215;-49
2023/12/20 03:25:53;;;;;;;8.87;3.20;;;;;;;;;;4974376;28;20529;-48
2023/12/20 03:28:19;;;;;;;7.07;3.53;;;;;;;;;;4974211;28;20330;-48
2023/12/20 03:30:46;;;;;;;6.37;3.20;;;;;;;;;;4960761;28;20702;-48
2023/12/20 03:33:12;;;;;;;10.73;3.20;;;;;;;;;;4962762;28;20218;-48
2023/12/20 03:35:38;;;;;;;8.50;3.27;;;;;;;;;;4964176;28;20478;-48
2023/12/20 03:38:04;;;;;;;7.70;3.27;;;;;;;;;;4962403;28;20199;-48
2023/12/20 03:40:30;;;;;;;8.80;3.47;;;;;;;;;;4964102;28;20729;-49
2023/12/20 03:42:56;;;;;;;7.30;3.13;;;;;;;;;;4962388;28;20207;-48
2023/12/20 03:45:22;;;;;;;8.80;3.67;;;;;;;;;;4964200;28;20211;-49
2023/12/20 03:47:49;;;;;;;11.80;3.37;;;;;;;;;;4962174;28;20234;-48
2023/12/20 03:50:15;;;;;;;6.37;3.23;;;;;;;;;;4962213;28;20224;-48
2023/12/20 03:52:41;;;;;;;10.53;3.37;;;;;;;;;;4962222;28;20202;-48
2023/12/20 03:55:08;;;;;;;15.03;3.57;;;;;;;;;;4962249;28;20222;-48
2023/12/20 03:57:34;;;;;;;8.83;3.40;;;;;;;;;;4962132;28;20521;-48
2023/12/20 03:59:59;;;;;;;10.50;3.70;;;;;;;;;;4961938;28;20533;-48
2023/12/20 04:02:25;;;;;;;6.87;3.63;;;;;;;;;;4962178;28;20195;-48
2023/12/20 04:04:53;;;;;;;8.53;3.40;;;;;;;;;;4962195;28;20197;-48
2023/12/20 04:07:19;;;;;;;8.10;3.07;;;;;;;;;;4961944;28;20213;-48
2023/12/20 04:09:45;;;;;;;8.30;3.63;;;;;;;;;;4963593;28;20209;-48
2023/12/20 04:12:11;;;;;;;8.93;3.63;;;;;;;;;;4962066;28;20278;-48
2023/12/20 04:14:37;;;;;;;7.03;3.57;;;;;;;;;;4961775;28;20298;-48
2023/12/20 04:17:03;;;;;;;8.10;3.70;;;;;;;;;;4961719;28;20977;-48
2023/12/20 04:19:29;;;;;;;9.33;3.67;;;;;;;;;;4961767;28;20222;-48
2023/12/20 04:21:56;;;;;;;9.97;4.23;;;;;;;;;;4960075;28;20659;-48
2023/12/20 04:24:22;;;;;;;10.47;3.70;;;;;;;;;;4961576;28;20218;-48
2023/12/20 04:26:48;;;;;;;9.70;3.87;;;;;;;;;;4963053;28;20596;-48
2023/12/20 04:29:14;;;;;;;9.27;4.10;;;;;;;;;;4963023;28;20486;-48
2023/12/20 04:31:40;;;;;;;8.70;3.77;;;;;;;;;;4959829;28;20717;-48
2023/12/20 04:34:06;;;;;;;13.30;3.50;;;;;;;;;;4963271;28;20199;-48
2023/12/20 04:36:32;;;;;;;12.63;3.70;;;;;;;;;;4963189;28;20278;-48
2023/12/20 04:39:00;;;;;;;14.23;3.77;;;;;;;;;;4962493;28;20710;-48
2023/12/20 04:41:27;;;;;;;11.00;3.27;;;;;;;;;;4961617;28;20207;-48
2023/12/20 04:43:53;;;;;;;9.53;3.63;;;;;;;;;;4961508;28;20210;-49
2023/12/20 04:46:19;;;;;;;11.70;3.30;;;;;;;;;;4961450;28;20221;-48
2023/12/20 04:48:45;;;;;;;8.90;3.50;;;;;;;;;;4959567;28;20245;-48
2023/12/20 04:51:11;;;;;;;11.47;3.10;;;;;;;;;;4961382;28;20207;-48
2023/12/20 04:53:37;;;;;;;14.40;3.80;;;;;;;;;;4961340;28;20238;-48
2023/12/20 04:56:05;;;;;;;9.60;3.53;;;;;;;;;;4959354;28;20229;-48
2023/12/20 04:58:31;;;;;;;13.13;3.83;;;;;;;;;;4964541;28;20209;-48
2023/12/20 05:00:57;;;;;;;10.33;3.33;;;;;;;;;;4961152;28;20207;-48
2023/12/20 05:03:23;;;;;;;11.23;3.13;;;;;;;;;;4961160;28;20206;-48
2023/12/20 05:05:49;;;;;;;11.20;3.40;;;;;;;;;;4961277;28;20744;-49
2023/12/20 05:08:15;;;;;;;10.33;3.23;;;;;;;;;;4960770;28;20669;-49
2023/12/20 05:10:41;;;;;;;14.50;4.20;;;;;;;;;;4961225;28;20202;-48
2023/12/20 05:13:08;;;;;;;10.57;4.00;;;;;;;;;;4959466;28;20281;-48
2023/12/20 05:15:34;;;;;;;13.70;3.77;;;;;;;;;;4962671;28;20294;-48
2023/12/20 05:18:00;;;;;;;12.53;3.40;;;;;;;;;;4959423;28;20721;-48
2023/12/20 05:20:26;;;;;;;10.87;3.73;;;;;;;;;;4961061;28;20253;-48
2023/12/20 05:22:52;;;;;;;13.00;3.93;;;;;;;;;;4962535;28;20667;-49
2023/12/20 05:25:18;;;;;;;12.37;3.90;;;;;;;;;;4961000;28;20261;-49
2023/12/20 05:27:44;;;;;;;9.60;3.40;;;;;;;;;;4962633;28;20309;-49
2023/12/20 05:30:12;;;;;;;15.27;3.50;;;;;;;;;;4961002;28;20214;-49
2023/12/20 05:32:38;;;;;;;9.93;3.67;;;;;;;;;;4959343;28;21017;-49
2023/12/20 05:35:04;;;;;;;8.47;3.47;;;;;;;;;;4962440;28;20609;-49
2023/12/20 05:37:30;;;;;;;9.73;3.77;;;;;;;;;;4959107;28;20286;-48
2023/12/20 05:39:56;;;;;;;12.43;4.00;;;;;;;;;;4959329;28;20345;-48
2023/12/20 05:42:22;;;;;;;8.60;3.73;;;;;;;;;;4964170;28;20207;-49
2023/12/20 05:44:48;;;;;;;10.73;3.63;;;;;;;;;;4960593;28;20227;-49
2023/12/20 05:47:15;;;;;;;8.97;3.67;;;;;;;;;;4960577;28;20567;-48
2023/12/20 05:49:41;;;;;;;9.90;3.63;;;;;;;;;;4961790;28;20207;-48
2023/12/20 05:52:07;;;;;;;10.53;3.80;;;;;;;;;;4966185;28;20210;-48
2023/12/20 05:54:34;;;;;;;11.77;3.97;;;;;;;;;;4965873;28;20195;-48
2023/12/20 05:57:00;;;;;;;13.40;3.70;;;;;;;;;;4962441;28;20199;-49
2023/12/20 05:59:26;;;;;;;9.43;3.60;;;;;;;;;;4967676;28;20580;-49
2023/12/20 06:01:53;;;;;;;15.83;3.77;;;;;;;;;;4965810;28;20199;-49
2023/12/20 06:04:20;;;;;;;14.83;4.10;;;;;;;;;;4965757;28;20666;-48
2023/12/20 06:06:46;;;;;;;10.30;3.30;;;;;;;;;;4963934;28;20242;-48
2023/12/20 06:09:12;;;;;;;11.87;3.37;;;;;;;;;;4964109;28;20223;-49
2023/12/20 06:11:38;;;;;;;8.77;3.40;;;;;;;;;;4963977;28;20662;-48
2023/12/20 06:14:04;;;;;;;5.80;2.60;;;;;;;;;;4963734;28;20217;-48
2023/12/20 06:16:30;;;;;;;13.40;3.37;;;;;;;;;;4962085;28;20593;-50
2023/12/20 06:18:56;;;;;;;11.50;4.10;;;;;;;;;;4965262;28;20206;-48
2023/12/20 06:21:24;;;;;;;14.90;4.10;;;;;;;;;;4965081;28;20557;-48
2023/12/20 06:23:50;;;;;;;10.53;3.40;;;;;;;;;;4963384;28;20768;-49
2023/12/20 06:26:16;;;;;;;8.10;3.67;;;;;;;;;;4962054;28;20203;-48
2023/12/20 06:28:42;;;;;;;14.70;3.97;;;;;;;;;;4962789;28;20571;-49
2023/12/20 06:31:08;;;;;;;12.37;4.33;;;;;;;;;;4963836;28;20203;-49
2023/12/20 06:33:34;;;;;;;10.80;3.83;;;;;;;;;;4965165;28;20209;-49
2023/12/20 06:36:01;;;;;;;8.17;3.27;;;;;;;;;;4961542;28;20371;-49
2023/12/20 06:38:28;;;;;;;14.20;4.10;;;;;;;;;;4963828;28;20287;-49
2023/12/20 06:40:54;;;;;;;12.80;3.50;;;;;;;;;;4961937;28;20203;-49
2023/12/20 06:43:21;;;;;;;12.07;4.13;;;;;;;;;;4963534;28;20242;-49
2023/12/20 06:45:46;;;;;;;12.87;4.60;;;;;;;;;;4963188;28;20191;-49
2023/12/20 06:48:13;;;;;;;11.77;3.43;;;;;;;;;;4966800;28;20270;-48
2023/12/20 06:50:39;;;;;;;13.37;3.87;;;;;;;;;;4961560;28;20207;-49
2023/12/20 06:53:06;;;;;;;12.30;3.53;;;;;;;;;;4965065;28;20203;-49
2023/12/20 06:55:34;;;;;;;12.40;3.97;;;;;;;;;;4961666;28;20230;-48
2023/12/20 06:58:00;;;;;;;12.13;3.80;;;;;;;;;;4963017;28;20211;-49
2023/12/20 07:00:26;;;;;;;11.20;3.60;;;;;;;;;;4962959;28;20730;-49
2023/12/20 07:02:52;;;;;;;17.27;4.70;;;;;;;;;;4960785;28;20207;-49
2023/12/20 07:05:19;;;;;;;16.93;4.30;;;;;;;;;;4964867;28;20214;-49
2023/12/20 07:07:46;;;;;;;13.23;4.00;;;;;;;;;;4964610;28;20207;-49
2023/12/20 07:10:12;;;;;;;17.77;4.87;;;;;;;;;;4964727;28;20202;-49
2023/12/20 07:12:39;;;;;;;13.30;3.40;;;;;;;;;;4962965;28;20199;-49
2023/12/20 07:15:07;;;;;;;18.13;4.60;;;;;;;;;;4962710;28;20234;-49
2023/12/20 07:17:33;;;;;;;13.57;3.77;;;;;;;;;;4962926;28;20223;-49
2023/12/20 07:20:03;;;;;;;16.03;4.27;;;;;;;;;;4964882;28;20195;-49
2023/12/20 07:22:29;;;;;;;11.80;3.43;;;;;;;;;;4964532;28;20218;-48
2023/12/20 07:24:55;;;;;;;12.10;4.40;;;;;;;;;;4961117;28;20210;-49
2023/12/20 07:27:21;;;;;;;10.63;3.73;;;;;;;;;;4962559;28;20293;-48
2023/12/20 07:29:48;;;;;;;7.63;3.60;;;;;;;;;;4962644;28;20195;-49
2023/12/20 07:32:14;;;;;;;10.50;4.23;;;;;;;;;;4962595;28;20234;-49
2023/12/20 07:34:40;;;;;;;12.97;3.93;;;;;;;;;;4964000;28;20199;-48
2023/12/20 07:37:06;;;;;;;16.50;4.40;;;;;;;;;;4961654;28;20203;-48
2023/12/20 07:39:32;;;;;;;15.70;3.83;;;;;;;;;;4961698;28;20632;-49
2023/12/20 07:41:58;;;;;;;12.37;4.40;;;;;;;;;;4962353;28;20203;-49
2023/12/20 07:44:24;;;;;;;13.00;3.77;;;;;;;;;;4964378;28;20709;-49
2023/12/20 07:46:51;;;;;;;8.03;3.47;;;;;;;;;;4964210;28;20273;-49
2023/12/20 07:49:17;;;;;;;10.60;3.23;;;;;;;;;;4962331;28;20218;-48
2023/12/20 07:51:43;;;;;;;14.33;4.30;;;;;;;;;;4963081;28;20202;-49
2023/12/20 07:54:09;;;;;;;13.23;4.00;;;;;;;;;;4963720;28;20203;-49
2023/12/20 07:56:35;;;;;;;12.47;3.83;;;;;;;;;;4963610;28;20255;-48
2023/12/20 07:59:01;;;;;;;15.50;4.00;;;;;;;;;;4965206;28;20737;-49
2023/12/20 08:01:27;;;;;;;13.40;4.33;;;;;;;;;;4961820;28;20249;-49
2023/12/20 08:03:54;;;;;;;15.77;4.07;;;;;;;;;;4963542;28;20666;-51
2023/12/20 08:06:20;;;;;;;13.23;3.93;;;;;;;;;;4962221;28;20246;-51
2023/12/20 08:08:46;;;;;;;11.67;4.20;;;;;;;;;;4961764;28;20250;-51
2023/12/20 08:11:12;;;;;;;12.03;3.97;;;;;;;;;;4963371;28;20211;-51
2023/12/20 08:13:38;;;;;;;12.43;3.73;;;;;;;;;;4961033;28;20289;-51
2023/12/20 08:16:04;;;;;;;11.10;3.83;;;;;;;;;;4961688;28;20241;-51
2023/12/20 08:18:30;;;;;;;16.40;4.60;;;;;;;;;;4961650;28;20566;-51
2023/12/20 08:20:58;;;;;;;14.00;4.10;;;;;;;;;;4963625;28;20203;-50
2023/12/20 08:23:24;;;;;;;13.53;4.60;;;;;;;;;;4961676;28;20227;-50
2023/12/20 08:25:50;;;;;;;10.93;3.60;;;;;;;;;;4963155;28;20201;-51
2023/12/20 08:28:16;;;;;;;12.20;4.13;;;;;;;;;;4961517;28;20242;-51
2023/12/20 08:30:42;;;;;;;18.00;4.00;;;;;;;;;;4961589;28;20209;-51
2023/12/20 08:33:12;;;;;;;13.00;4.00;;;;;;;;;;4961529;28;20214;-50
2023/12/20 08:35:38;;;;;;;13.27;4.17;;;;;;;;;;4962976;28;20728;-48
2023/12/20 08:38:05;;;;;;;12.27;4.50;;;;;;;;;;4961461;28;20610;-48
2023/12/20 08:40:31;;;;;;;15.60;4.80;;;;;;;;;;4959708;28;20433;-49
2023/12/20 08:42:58;;;;;;;15.13;4.20;;;;;;;;;;4963089;28;20207;-49
2023/12/20 08:45:24;;;;;;;12.80;3.90;;;;;;;;;;4961510;28;20558;-49
2023/12/20 08:47:50;;;;;;;14.73;4.27;;;;;;;;;;4960975;28;20201;-49
2023/12/20 08:50:16;;;;;;;15.90;4.73;;;;;;;;;;4961218;28;20199;-49
2023/12/20 08:52:42;;;;;;;13.03;4.40;;;;;;;;;;4961427;28;20278;-48
2023/12/20 08:55:10;;;;;;;13.93;4.50;;;;;;;;;;4962994;28;20226;-48
2023/12/20 08:57:36;;;;;;;15.57;4.33;;;;;;;;;;4961141;28;20298;-48
2023/12/20 09:00:03;;;;;;;14.87;4.90;;;;;;;;;;4962755;28;20322;-50
2023/12/20 09:02:29;;;;;;;16.43;4.57;;;;;;;;;;4962915;28;20203;-50
2023/12/20 09:04:55;;;;;;;13.60;4.00;;;;;;;;;;4964729;28;20385;-48
2023/12/20 09:07:22;;;;;;;13.33;3.43;;;;;;;;;;4961206;28;20207;-50
2023/12/20 09:09:48;;;;;;;14.07;4.57;;;;;;;;;;4962708;28;20748;-49
2023/12/20 09:12:15;;;;;;;15.97;3.67;;;;;;;;;;4964473;28;20207;-49
2023/12/20 09:14:41;;;;;;;10.43;3.70;;;;;;;;;;4961273;28;20210;-49
2023/12/20 09:17:08;;;;;;;13.87;3.40;;;;;;;;;;4960701;28;20254;-50
2023/12/20 09:19:34;;;;;;;13.67;4.50;;;;;;;;;;4961163;28;20265;-50
2023/12/20 09:22:01;;;;;;;19.60;4.97;;;;;;;;;;4959221;28;20896;-50
2023/12/20 09:24:27;;;;;;;15.60;4.17;;;;;;;;;;4965299;28;20623;-49
2023/12/20 09:26:53;;;;;;;12.83;4.43;;;;;;;;;;4966413;28;20229;-50
2023/12/20 09:29:21;;;;;;;14.10;4.63;;;;;;;;;;4962873;28;20358;-49
2023/12/20 09:31:47;;;;;;;11.93;3.43;;;;;;;;;;4964829;28;20202;-56
2023/12/20 09:34:13;;;;;;;10.73;4.00;;;;;;;;;;4965067;28;20570;-49
2023/12/20 09:36:46;;;;;;;12.83;3.90;;;;;;;;;;4964815;28;20241;-49
2023/12/20 09:39:12;;;;;;;8.97;3.10;;;;;;;;;;4963118;28;20222;-50
2023/12/20 09:41:42;;;;;;;12.30;3.40;;;;;;;;;;4969877;28;20211;-49
2023/12/20 09:44:09;;;;;;;12.70;4.23;;;;;;;;;;4964640;28;20203;-49
2023/12/20 09:46:39;;;;;;;11.07;3.37;;;;;;;;;;4964475;28;20282;-49
2023/12/20 09:49:05;;;;;;;16.87;4.07;;;;;;;;;;4964632;28;20230;-50
2023/12/20 09:51:32;;;;;;;9.30;3.30;;;;;;;;;;4962781;28;20211;-49
2023/12/20 09:53:58;;;;;;;12.33;3.67;;;;;;;;;;4964572;28;20203;-49
2023/12/20 09:56:25;;;;;;;12.27;4.47;;;;;;;;;;4964495;28;20230;-49
2023/12/20 09:58:51;;;;;;;9.90;3.27;;;;;;;;;;4964315;28;20199;-49
2023/12/20 10:01:17;;;;;;;9.87;3.43;;;;;;;;;;4964395;28;20203;-49
2023/12/20 10:03:45;;;;;;;12.93;4.47;;;;;;;;;;4964269;28;20716;-49
2023/12/20 10:06:11;;;;;;;8.20;2.93;;;;;;;;;;4965684;28;20199;-49
2023/12/20 10:08:37;;;;;;;9.77;3.57;;;;;;;;;;4965895;28;20207;-50
2023/12/20 10:11:03;;;;;;;13.53;3.37;;;;;;;;;;4964211;28;20199;-47
2023/12/20 10:13:29;;;;;;;13.90;3.63;;;;;;;;;;4964328;28;20207;-50
2023/12/20 10:15:59;;;;;;;12.67;3.60;;;;;;;;;;4975135;28;20317;-50
2023/12/20 10:18:25;;;;;;;10.60;3.10;;;;;;;;;;4983568;28;20233;-50
2023/12/20 10:20:53;;;;;;;11.80;3.40;;;;;;;;;;4982389;28;20295;-50
2023/12/20 10:23:19;;;;;;;9.47;3.20;;;;;;;;;;4983685;28;20225;-47
2023/12/20 10:25:56;;;;;;;8.50;3.03;;;;;;;;;;4985752;28;20568;-47
2023/12/20 10:28:25;;;;;;;12.10;3.07;;;;;;;;;;4983369;28;20234;-48
2023/12/20 10:30:51;;;;;;;7.53;2.77;;;;;;;;;;4984891;28;20216;-48
2023/12/20 10:33:23;;;;;;;7.77;3.53;;;;;;;;;;4982990;28;20221;-49
2023/12/20 10:35:49;;;;;;;8.30;2.67;;;;;;;;;;4985625;28;20276;-48
2023/12/20 10:38:17;;;;;;;11.00;3.23;;;;;;;;;;4986257;28;20202;-50
2023/12/20 10:40:43;;;;;;;11.20;2.80;;;;;;;;;;4974434;28;20210;-49
2023/12/20 10:43:09;;;;;;;8.20;2.97;;;;;;;;;;4974956;28;20572;-48
2023/12/20 10:45:35;;;;;;;4.97;2.57;;;;;;;;;;4975079;28;20199;-48
2023/12/20 10:48:02;;;;;;;11.27;2.77;;;;;;;;;;4975114;28;20203;-48
2023/12/20 10:50:29;;;;;;;8.87;2.80;;;;;;;;;;4975111;28;20195;-48
2023/12/20 10:52:56;;;;;;;5.03;2.43;;;;;;;;;;4974847;28;20198;-48
2023/12/20 10:55:23;;;;;;;8.10;2.47;;;;;;;;;;4974958;28;20234;-48
2023/12/20 10:57:50;;;;;;;6.00;2.10;;;;;;;;;;4974901;28;20207;-48
2023/12/20 11:00:18;;;;;;;4.53;1.80;;;;;;;;;;4972547;28;20203;-49
2023/12/20 11:02:44;;;;;;;4.13;1.83;;;;;;;;;;4973231;28;20290;-49
2023/12/20 11:05:15;;;;;;;4.17;1.70;;;;;;;;;;4975038;28;20215;-49
2023/12/20 11:07:43;;;;;;;7.27;2.20;;;;;;;;;;4975188;28;20297;-49
2023/12/20 11:10:14;;;;;;;6.53;2.03;;;;;;;;;;4974967;28;20637;-48
2023/12/20 11:12:45;;;;;;;7.13;2.13;;;;;;;;;;4975145;28;20289;-49
2023/12/20 11:15:11;;;;;;;4.30;1.60;;;;;;;;;;4975020;28;20230;-49
2023/12/20 11:17:40;;;;;;;4.33;1.70;;;;;;;;;;4974926;28;20295;-49
2023/12/20 11:20:10;;;;;;;4.77;2.07;;;;;;;;;;4974555;28;20624;-49
2023/12/20 11:22:37;;;;;;;5.90;1.93;;;;;;;;;;4974785;28;20231;-48
2023/12/20 11:25:04;;;;;;;7.00;1.83;;;;;;;;;;4974740;28;20206;-48
2023/12/20 11:27:30;;;;;;;5.57;1.70;;;;;;;;;;4974622;28;20241;-48
2023/12/20 11:29:58;;;;;;;6.43;2.00;;;;;;;;;;4974669;28;20622;-48
2023/12/20 11:32:31;;;;;;;3.07;1.77;;;;;;;;;;4974707;28;20203;-49
2023/12/20 11:34:58;;;;;;;4.17;1.90;;;;;;;;;;4974294;28;20211;-48
2023/12/20 11:37:30;;;;;;;4.73;1.67;;;;;;;;;;4974282;28;20226;-49
2023/12/20 11:39:56;;;;;;;4.13;1.63;;;;;;;;;;4974283;28;20219;-49
2023/12/20 11:42:22;;;;;;;4.27;1.70;;;;;;;;;;4974267;28;20221;-48
2023/12/20 11:44:48;;;;;;;2.93;1.37;;;;;;;;;;4972089;28;20199;-49
2023/12/20 11:47:18;;;;;;;3.67;1.30;;;;;;;;;;4973524;28;20257;-48
2023/12/20 11:49:45;;;;;;;1.27;1.17;;;;;;;;;;4973584;28;20294;-49
2023/12/20 11:52:13;;;;;;;2.40;1.30;;;;;;;;;;4973630;28;20631;-53
2023/12/20 11:54:39;;;;;;;1.97;1.20;;;;;;;;;;4973818;28;20199;-49
2023/12/20 11:57:05;;;;;;;1.73;1.33;;;;;;;;;;4973759;28;20237;-49
2023/12/20 11:59:31;;;;;;;2.90;1.17;;;;;;;;;;4973660;28;20294;-48
2023/12/20 12:02:00;;;;;;;2.10;1.20;;;;;;;;;;4973504;28;20278;-48
2023/12/20 12:04:28;;;;;;;3.00;1.10;;;;;;;;;;4973711;28;20203;-48
2023/12/20 12:06:54;;;;;;;1.47;1.20;;;;;;;;;;4973275;28;20230;-48
2023/12/20 12:09:20;;;;;;;1.40;1.13;;;;;;;;;;4973458;28;20231;-48
2023/12/20 12:11:46;;;;;;;2.63;1.10;;;;;;;;;;4973345;28;20757;-48
2023/12/20 12:14:12;;;;;;;2.30;1.40;;;;;;;;;;4973347;28;20199;-49
2023/12/20 12:16:38;;;;;;;2.90;1.20;;;;;;;;;;4973227;28;20310;-49
2023/12/20 12:19:04;;;;;;;4.00;1.33;;;;;;;;;;4972769;28;20207;-49
2023/12/20 12:21:31;;;;;;;3.33;1.47;;;;;;;;;;4973644;28;20250;-49
2023/12/20 12:24:06;;;;;;;3.00;1.20;;;;;;;;;;4973541;28;20234;-49
2023/12/20 12:26:32;;;;;;;2.17;1.07;;;;;;;;;;4973367;28;20233;-49
2023/12/20 12:28:58;;;;;;;2.77;1.40;;;;;;;;;;4972819;28;20239;-49
2023/12/20 12:31:26;;;;;;;1.60;1.20;;;;;;;;;;4973392;28;20207;-49
2023/12/20 12:33:52;;;;;;;2.20;1.47;;;;;;;;;;4973164;28;20605;-49
2023/12/20 12:36:18;;;;;;;1.90;1.13;;;;;;;;;;4973065;28;20223;-49
2023/12/20 12:38:46;;;;;;;4.00;1.43;;;;;;;;;;4973161;28;20233;-49
2023/12/20 12:41:13;;;;;;;5.03;1.60;;;;;;;;;;4973068;28;20723;-50
2023/12/20 12:43:39;;;;;;;3.87;1.30;;;;;;;;;;4973131;28;20214;-48
2023/12/20 12:46:05;;;;;;;2.33;1.17;;;;;;;;;;4972935;28;20195;-49
2023/12/20 12:48:31;;;;;;;3.10;1.30;;;;;;;;;;4971365;28;20202;-49
2023/12/20 12:50:59;;;;;;;2.67;1.00;;;;;;;;;;4964512;28;20617;-49
2023/12/20 12:53:26;;;;;;;2.20;1.40;;;;;;;;;;4966436;28;20203;-49
2023/12/20 12:55:54;;;;;;;3.10;1.30;;;;;;;;;;4964543;28;20238;-49
2023/12/20 12:58:20;;;;;;;3.67;1.20;;;;;;;;;;4962874;28;20249;-49
2023/12/20 13:00:46;;;;;;;7.00;2.20;;;;;;;;;;4968899;28;20207;-49
2023/12/20 13:03:12;;;;;;;3.43;1.30;;;;;;;;;;4962732;28;20195;-49
2023/12/20 13:05:38;;;;;;;2.13;1.30;;;;;;;;;;4966447;28;20202;-49
2023/12/20 13:08:05;;;;;;;3.17;1.40;;;;;;;;;;4961070;28;20203;-49
2023/12/20 13:10:31;;;;;;;3.37;1.53;;;;;;;;;;4962794;28;20585;-48
2023/12/20 13:12:58;;;;;;;4.27;1.60;;;;;;;;;;4962852;28;20250;-49
2023/12/20 13:15:24;;;;;;;5.47;1.70;;;;;;;;;;4959926;28;20214;-48
2023/12/20 13:17:50;;;;;;;4.13;1.50;;;;;;;;;;4964411;28;20210;-49
2023/12/20 13:20:16;;;;;;;5.10;1.63;;;;;;;;;;4962582;28;20198;-52
2023/12/20 13:22:42;;;;;;;3.87;1.40;;;;;;;;;;4964459;28;20769;-49
2023/12/20 13:25:08;;;;;;;5.07;1.73;;;;;;;;;;4966174;28;20210;-49
2023/12/20 13:27:34;;;;;;;4.80;1.70;;;;;;;;;;4966139;28;20814;-49
2023/12/20 13:30:02;;;;;;;3.20;1.40;;;;;;;;;;4962464;28;20207;-50
2023/12/20 13:32:28;;;;;;;4.20;1.73;;;;;;;;;;4962445;28;20242;-49
2023/12/20 13:34:54;;;;;;;5.20;1.60;;;;;;;;;;4960981;28;20230;-48
2023/12/20 13:37:20;;;;;;;5.83;1.73;;;;;;;;;;4962373;28;20590;-49
2023/12/20 13:39:48;;;;;;;4.10;1.43;;;;;;;;;;4962521;28;20286;-49
2023/12/20 13:42:14;;;;;;;3.80;1.70;;;;;;;;;;4962510;28;20199;-49
2023/12/20 13:44:40;;;;;;;6.03;2.03;;;;;;;;;;4966087;28;20282;-49
2023/12/20 13:47:08;;;;;;;5.80;2.10;;;;;;;;;;4963972;28;20640;-49
2023/12/20 13:49:34;;;;;;;8.77;2.17;;;;;;;;;;4962221;28;20266;-49
2023/12/20 13:52:01;;;;;;;6.57;2.07;;;;;;;;;;4961925;28;20269;-50
2023/12/20 13:54:27;;;;;;;6.37;2.53;;;;;;;;;;4962211;28;20599;-49
2023/12/20 13:56:53;;;;;;;4.70;1.70;;;;;;;;;;4960598;28;20222;-49
2023/12/20 13:59:19;;;;;;;4.90;1.90;;;;;;;;;;4960328;28;20206;-50
2023/12/20 14:01:45;;;;;;;7.60;1.90;;;;;;;;;;4962214;28;20689;-49
2023/12/20 14:04:12;;;;;;;5.33;1.83;;;;;;;;;;4968992;28;20298;-50
2023/12/20 14:06:38;;;;;;;3.50;1.77;;;;;;;;;;4972549;28;20254;-49
2023/12/20 14:09:04;;;;;;;4.20;1.77;;;;;;;;;;4972363;28;20203;-50
2023/12/20 14:11:30;;;;;;;6.77;2.03;;;;;;;;;;4972787;28;20241;-49
2023/12/20 14:13:57;;;;;;;5.67;2.03;;;;;;;;;;4975932;28;20211;-49
2023/12/20 14:16:23;;;;;;;5.80;1.83;;;;;;;;;;4975763;28;20253;-49
2023/12/20 14:18:51;;;;;;;3.63;1.50;;;;;;;;;;4975787;28;20234;-49
2023/12/20 14:21:19;;;;;;;4.97;2.47;;;;;;;;;;4973910;28;20203;-49
2023/12/20 14:23:46;;;;;;;4.90;2.10;;;;;;;;;;4975473;28;20302;-50
2023/12/20 14:26:14;;;;;;;4.70;1.80;;;;;;;;;;4973536;28;20203;-49
2023/12/20 14:28:41;;;;;;;7.13;2.60;;;;;;;;;;4975632;28;20628;-49
2023/12/20 14:31:07;;;;;;;6.20;2.00;;;;;;;;;;4975664;28;20756;-49
2023/12/20 14:33:33;;;;;;;6.33;2.77;;;;;;;;;;4975730;28;20367;-48